Duck Valley, Nevada
Current Conditions -  °F | °C
As of 8:58 AM on Friday 28 Nov 2014 (Local Time) from KMUO Reporting Station
Overcast Overcast  
Wind Chill:   Ceiling: 13000
Heat Index:   Visibility: 10mi
Dew Point:   Wind: 9mph
Humidity: 85%   Direction: 100°E
Pressure: 29.84"   Gusts: NA
Location:  41.9458°N, 116.094°W
Report Text: KMUO 281658Z AUTO 10008KT 10SM OVC130 07/05 A2984 RMK AO2 SLP107 T00740051
Loading
Personal Weather Stations






























Interactive Weather Map New forecast layout! Learn more

10-Day Weather Forecast

Advertisements
Track Severe Weather on mobile